createdAt,value
2018-09-04T07:18:46.692Z,97790.62
2018-09-04T07:21:15.792Z,97792.71
2018-09-04T07:23:45.076Z,97789.61
2018-09-04T07:26:13.965Z,97795.81
2018-09-04T07:28:42.657Z,97794.72
2018-09-04T07:31:11.815Z,97785.33
2018-09-04T07:33:40.315Z,97784.66
2018-09-04T07:36:09.388Z,97786.40
2018-09-04T07:38:37.942Z,97778.56
2018-09-04T07:41:06.433Z,97777.92
2018-09-04T07:43:34.914Z,97785.44
2018-09-04T07:46:03.322Z,97783.31
2018-09-04T07:48:31.854Z,97781.81
2018-09-04T07:51:00.342Z,97780.67
2018-09-04T07:53:29.919Z,97784.35
2018-09-04T07:55:59.240Z,97788.73
2018-09-04T07:58:27.744Z,97777.50
2018-09-04T08:00:56.361Z,97771.59
2018-09-04T08:03:24.868Z,97778.16
2018-09-04T08:05:54.047Z,97775.15
2018-09-04T08:08:22.699Z,97769.78
2018-09-04T08:10:51.412Z,97769.92
2018-09-04T08:13:19.826Z,97771.38
2018-09-04T08:15:48.422Z,97763.32
2018-09-04T08:18:16.916Z,97758.94
2018-09-04T08:20:45.551Z,97761.45
2018-09-04T08:23:14.047Z,97759.50
2018-09-04T08:25:43.130Z,97753.57
2018-09-04T08:28:12.270Z,97750.03
2018-09-04T08:30:41.526Z,97750.28
2018-09-04T08:33:10.782Z,97749.50
2018-09-04T08:35:39.311Z,97745.25
2018-09-04T08:38:07.750Z,97749.89
2018-09-04T08:40:36.458Z,97754.48
2018-09-04T08:43:04.986Z,97753.93
2018-09-04T08:45:33.563Z,97751.26
2018-09-04T08:48:03.165Z,97753.48
2018-09-04T08:50:33.525Z,97752.94
2018-09-04T08:53:02.488Z,97748.49
2018-09-04T08:55:31.792Z,97752.03
2018-09-04T08:58:00.368Z,97751.42
2018-09-04T09:00:29.216Z,97748.46
2018-09-04T09:02:58.461Z,97744.05
2018-09-04T09:05:27.776Z,97740.50
2018-09-04T09:07:56.285Z,97737.02
2018-09-04T09:10:25.131Z,97733.36
2018-09-04T09:12:53.770Z,97740.05
2018-09-04T09:15:22.236Z,97736.69
2018-09-04T09:17:50.808Z,97733.64
2018-09-04T09:20:19.479Z,97728.16
2018-09-04T09:22:48.127Z,97734.36
2018-09-04T09:25:16.607Z,97735.95
2018-09-04T09:27:45.275Z,97740.48
2018-09-04T09:30:14.582Z,97739.97
2018-09-04T09:32:43.446Z,97744.52
2018-09-04T09:35:12.181Z,97742.56
2018-09-04T09:37:40.807Z,97736.09
2018-09-04T09:40:09.288Z,97737.22
2018-09-04T09:42:38.424Z,97731.28
2018-09-04T09:45:07.146Z,97730.91
2018-09-04T09:47:39.888Z,97730.44
2018-09-04T09:50:08.684Z,97729.27
2018-09-04T09:52:37.354Z,97725.12
2018-09-04T09:55:06.292Z,97725.91
2018-09-04T09:57:34.996Z,97726.22
2018-09-04T10:00:03.529Z,97725.89
2018-09-04T10:02:37.851Z,97726.02
2018-09-04T10:05:06.289Z,97722.35
2018-09-04T10:07:35.342Z,97727.12
2018-09-04T10:10:04.302Z,97723.64
2018-09-04T10:12:32.840Z,97717.85
2018-09-04T10:15:01.409Z,97718.53
2018-09-04T10:17:30.298Z,97710.22
2018-09-04T10:19:58.933Z,97713.94
2018-09-04T10:22:27.852Z,97719.05
2018-09-04T10:24:57.318Z,97712.23
2018-09-04T10:27:26.150Z,97714.62
2018-09-04T10:29:54.722Z,97711.76
2018-09-04T10:32:23.593Z,97711.69
2018-09-04T10:34:53.998Z,97714.66
2018-09-04T10:37:22.726Z,97712.00
2018-09-04T10:39:56.829Z,97709.59
2018-09-04T10:42:32.208Z,97709.22
2018-09-04T10:45:01.667Z,97703.75
2018-09-04T10:47:31.249Z,97698.66
2018-09-04T10:50:01.170Z,97705.13
2018-09-04T10:52:30.455Z,97711.84
2018-09-04T10:54:59.681Z,97712.52
2018-09-04T10:57:32.778Z,97715.37
2018-09-04T11:00:01.708Z,97713.79
2018-09-04T11:02:30.880Z,97704.76
2018-09-04T11:05:00.306Z,97706.58
2018-09-04T11:07:28.828Z,97706.91
2018-09-04T11:09:57.713Z,97702.70
2018-09-04T11:12:26.057Z,97702.95
2018-09-04T11:14:55.054Z,97703.16
2018-09-04T11:17:24.304Z,97698.87
2018-09-04T11:19:53.519Z,97699.08
2018-09-04T11:22:22.763Z,97698.86
2018-09-04T11:24:51.592Z,97696.83
2018-09-04T11:27:20.210Z,97692.41
2018-09-04T11:29:48.668Z,97695.66
2018-09-04T11:32:17.208Z,97691.77
2018-09-04T11:34:45.888Z,97685.50
2018-09-04T11:37:14.561Z,97687.94
2018-09-04T11:39:43.397Z,97683.69
2018-09-04T11:42:13.625Z,97685.55
2018-09-04T11:44:43.700Z,97685.34
2018-09-04T11:47:12.737Z,97683.12
2018-09-04T11:49:42.433Z,97683.96
2018-09-04T11:52:11.142Z,97684.73
2018-09-04T11:54:43.735Z,97685.06
2018-09-04T11:57:13.232Z,97685.80
2018-09-04T11:59:43.243Z,97683.00
2018-09-04T12:02:29.297Z,97680.05
2018-09-04T12:04:58.118Z,97678.78
2018-09-04T12:07:26.894Z,97688.20
2018-09-04T12:09:55.811Z,97685.55
2018-09-04T12:12:30.897Z,97684.23
2018-09-04T12:15:00.001Z,97688.95
2018-09-04T12:17:29.164Z,97689.14
2018-09-04T12:21:08.702Z,97684.56
2018-09-04T12:23:37.816Z,97683.00
2018-09-04T12:26:08.147Z,97677.81
2018-09-04T12:28:37.495Z,97675.79
2018-09-04T12:31:06.800Z,97672.59
2018-09-04T12:33:35.378Z,97675.69
2018-09-04T12:36:04.014Z,97673.44
2018-09-04T12:38:37.170Z,97681.83
2018-09-04T12:41:21.341Z,97675.83
2018-09-04T12:43:49.891Z,97673.52
2018-09-04T12:46:18.436Z,97678.18
2018-09-04T12:48:49.600Z,97676.06
2018-09-04T12:51:18.200Z,97677.64
2018-09-04T12:53:46.797Z,97675.66
2018-09-04T12:56:15.397Z,97677.40
2018-09-04T12:58:44.247Z,97674.02
2018-09-04T13:01:13.043Z,97672.89
2018-09-04T13:03:41.499Z,97672.72
2018-09-04T13:06:10.188Z,97672.77
2018-09-04T13:08:38.893Z,97668.08
2018-09-04T13:11:07.408Z,97678.28
2018-09-04T13:13:35.952Z,97670.59
2018-09-04T13:16:05.176Z,97672.70
2018-09-04T13:18:33.762Z,97673.44
2018-09-04T13:21:03.631Z,97667.07
2018-09-04T13:23:34.015Z,97670.08
2018-09-04T13:26:03.266Z,97664.06
2018-09-04T13:28:32.560Z,97662.66
2018-09-04T13:31:05.359Z,97664.86
2018-09-04T13:33:33.857Z,97659.30
2018-09-04T13:36:02.644Z,97669.31
2018-09-04T13:38:31.168Z,97659.24
2018-09-04T13:41:05.092Z,97666.13
2018-09-04T13:43:33.674Z,97661.88
2018-09-04T13:46:02.508Z,97664.45
2018-09-04T13:48:33.209Z,97667.80
2018-09-04T13:51:01.743Z,97655.16
2018-09-04T13:53:31.430Z,97656.70
2018-09-04T13:56:00.505Z,97654.87
2018-09-04T13:58:29.728Z,97655.06
2018-09-04T14:00:59.047Z,97651.53
2018-09-04T14:03:28.251Z,97654.71
2018-09-04T14:05:57.362Z,97657.38
2018-09-04T14:08:26.873Z,97653.48
2018-09-04T14:10:55.903Z,97644.39
2018-09-04T14:13:25.122Z,97644.91
2018-09-04T14:15:56.012Z,97646.60
2018-09-04T14:18:24.449Z,97653.56
2018-09-04T14:20:53.095Z,97652.93
2018-09-04T14:23:22.261Z,97652.36
2018-09-04T14:25:50.823Z,97649.29
2018-09-04T14:28:40.975Z,97649.33
2018-09-04T14:30:48.772Z,97645.73
2018-09-04T14:33:18.002Z,97649.59
2018-09-04T14:35:47.199Z,97651.97
2018-09-04T14:38:15.757Z,97649.89
2018-09-04T14:40:44.634Z,97645.00
2018-09-04T14:43:13.836Z,97655.19
2018-09-04T14:45:43.364Z,97651.97
2018-09-04T14:48:11.932Z,97653.91
2018-09-04T14:50:41.501Z,97650.72
2018-09-04T14:53:10.844Z,97655.94
2018-09-04T14:55:39.333Z,97646.59
2018-09-04T14:58:07.868Z,97644.92
2018-09-04T15:00:37.319Z,97650.20
2018-09-04T15:03:05.824Z,97651.72
2018-09-04T15:05:34.384Z,97646.59
2018-09-04T15:08:05.192Z,97649.27
2018-09-04T15:10:34.247Z,97645.84
2018-09-04T15:13:03.104Z,97639.80
2018-09-04T15:15:31.749Z,97636.64
2018-09-04T15:18:00.228Z,97639.27
2018-09-04T15:20:29.530Z,97641.25
2018-09-04T15:22:58.213Z,97638.27
2018-09-04T15:25:26.689Z,97633.20
2018-09-04T15:27:55.293Z,97637.59
2018-09-04T15:30:24.126Z,97639.27
2018-09-04T15:32:52.573Z,97643.33
2018-09-04T15:35:21.149Z,97653.02
2018-09-04T15:37:50.335Z,97641.40
2018-09-04T15:40:19.079Z,97644.92
2018-09-04T15:42:47.648Z,97651.13
2018-09-04T15:45:16.187Z,97647.40
2018-09-04T15:47:44.817Z,97643.91
2018-09-04T15:50:14.047Z,97642.36
2018-09-04T15:52:42.502Z,97646.53
2018-09-04T15:55:11.040Z,97644.95
2018-09-04T15:57:39.827Z,97639.84
2018-09-04T16:00:08.644Z,97634.71
2018-09-04T16:02:37.143Z,97637.27
2018-09-04T16:05:06.014Z,97645.54
2018-09-04T16:07:35.220Z,97647.23
2018-09-04T16:10:03.863Z,97649.05
2018-09-04T16:12:32.241Z,97650.16
2018-09-04T16:15:00.780Z,97644.21
2018-09-04T16:17:29.312Z,97648.20
2018-09-04T16:19:58.497Z,97647.95
2018-09-04T16:22:27.189Z,97648.14
2018-09-04T16:24:55.824Z,97660.11
2018-09-04T16:27:24.465Z,97655.14
2018-09-04T16:29:53.957Z,97657.53
2018-09-04T16:32:23.052Z,97660.66
2018-09-04T16:34:51.641Z,97659.52
2018-09-04T16:37:20.188Z,97659.20
2018-09-04T16:39:48.954Z,97664.23
2018-09-04T16:42:18.226Z,97662.38
2018-09-04T16:44:47.443Z,97661.97
2018-09-04T16:47:16.597Z,97659.63
2018-09-04T16:49:45.158Z,97659.25
2018-09-04T16:52:14.981Z,97660.98
2018-09-04T16:54:44.176Z,97662.17
2018-09-04T16:57:13.477Z,97663.55
2018-09-04T16:59:42.754Z,97661.45
2018-09-04T17:02:11.946Z,97655.86
2018-09-04T17:04:40.732Z,97655.80
2018-09-04T17:07:10.236Z,97656.09
2018-09-04T17:09:39.205Z,97662.32
2018-09-04T17:12:07.850Z,97659.53
2018-09-04T17:14:37.024Z,97660.91
2018-09-04T17:17:06.322Z,97659.50
2018-09-04T17:19:35.561Z,97662.01
2018-09-04T17:22:04.781Z,97662.97
2018-09-04T17:24:34.059Z,97667.44
2018-09-04T17:27:02.585Z,97661.96
2018-09-04T17:29:31.153Z,97671.20
2018-09-04T17:31:59.720Z,97669.78
2018-09-04T17:34:28.881Z,97679.73
2018-09-04T17:36:57.373Z,97671.53
2018-09-04T17:39:25.924Z,97675.80
2018-09-04T17:41:55.328Z,97684.70
2018-09-04T17:44:23.861Z,97682.16
2018-09-04T17:46:53.775Z,97680.58
2018-09-04T17:49:22.280Z,97691.34
2018-09-04T17:51:51.546Z,97695.98
2018-09-04T17:54:20.189Z,97695.16
2018-09-04T17:56:48.844Z,97698.59
2018-09-04T17:59:18.300Z,97700.69
2018-09-04T18:01:48.257Z,97703.14
2018-09-04T18:04:16.898Z,97704.81
2018-09-04T18:06:45.871Z,97707.13
2018-09-04T18:09:14.524Z,97707.08
2018-09-04T18:11:43.314Z,97703.07
2018-09-04T18:14:12.800Z,97702.78
2018-09-04T18:16:41.314Z,97708.58
2018-09-04T18:19:10.087Z,97706.15
2018-09-04T18:21:39.331Z,97715.88
2018-09-04T18:24:08.600Z,97720.45
2018-09-04T18:26:37.159Z,97721.95
2018-09-04T18:29:05.862Z,97720.30
2018-09-04T18:31:35.357Z,97727.31
2018-09-04T18:34:04.648Z,97736.23
2018-09-04T18:36:33.186Z,97738.52
2018-09-04T18:39:01.726Z,97739.39
2018-09-04T18:41:30.260Z,97746.27
2018-09-04T18:43:59.172Z,97748.11
2018-09-04T18:46:27.694Z,97754.21
2018-09-04T18:48:56.756Z,97749.10
2018-09-04T18:51:26.860Z,97750.41
2018-09-04T18:53:55.741Z,97754.30
2018-09-04T18:56:24.367Z,97764.84
2018-09-04T18:58:53.779Z,97761.89
2018-09-04T19:01:22.264Z,97770.83
2018-09-04T19:03:51.042Z,97763.48
2018-09-04T19:06:20.797Z,97768.95
2018-09-04T19:08:50.514Z,97765.57
2018-09-04T19:11:19.736Z,97768.23
2018-09-04T19:13:49.418Z,97765.86
2018-09-04T19:16:22.302Z,97763.47
2018-09-04T19:18:51.359Z,97766.93
2018-09-04T19:21:20.163Z,97767.07
2018-09-04T19:23:48.737Z,97766.50
2018-09-04T19:26:17.339Z,97768.32
2018-09-04T19:28:46.205Z,97760.87
2018-09-04T19:31:17.297Z,97758.74
2018-09-04T19:33:48.181Z,97761.19
2018-09-04T19:36:19.652Z,97768.59
2018-09-04T19:38:51.151Z,97770.39
2018-09-04T19:41:23.876Z,97769.33
2018-09-04T19:43:54.644Z,97768.59
2018-09-04T19:46:27.614Z,97768.17
2018-09-04T19:49:00.433Z,97772.55
2018-09-04T19:51:29.945Z,97770.79
2018-09-04T19:53:58.960Z,97770.30
2018-09-04T19:56:28.212Z,97769.06
2018-09-04T19:58:56.737Z,97769.06
2018-09-04T20:01:25.641Z,97774.89
2018-09-04T20:03:54.990Z,97777.54
2018-09-04T20:06:23.547Z,97774.63
2018-09-04T20:08:52.152Z,97774.55
2018-09-04T20:11:21.679Z,97779.40
2018-09-04T20:13:51.190Z,97777.44
2018-09-04T20:16:19.974Z,97778.28
2018-09-04T20:18:49.960Z,97785.46
2018-09-04T20:21:18.486Z,97787.71
2018-09-04T20:23:47.204Z,97793.02
2018-09-04T20:26:16.022Z,97788.66
2018-09-04T20:28:45.250Z,97789.41
2018-09-04T20:31:14.470Z,97794.21
2018-09-04T20:33:43.672Z,97796.59
2018-09-04T20:36:12.305Z,97791.92
2018-09-04T20:38:40.883Z,97798.31
2018-09-04T20:41:10.364Z,97793.98
2018-09-04T20:43:39.675Z,97793.38
2018-09-04T20:46:08.232Z,97794.94
2018-09-04T20:48:36.825Z,97756.16
